Time;durP1;ratioP1;P1;durP2;ratioP2;P2;SDS_P1;SDS_P2;PMS_P1;PMS_P2;Temp;Humidity;BMP_temperature;BMP_pressure;BME280_temperature;BME280_humidity;BME280_pressure;Samples;Min_cycle;Max_cycle;Signal;HPM_P1;HPM_P2
2022/04/23 00:02:11;;;;;;;20.40;18.58;;;;;;;;;;5055637;28;20383;-67
2022/04/23 00:04:37;;;;;;;20.98;19.08;;;;;;;;;;5082859;28;20112;-68
2022/04/23 00:07:05;;;;;;;21.02;19.02;;;;;;;;;;5075786;28;20383;-67
2022/04/23 00:09:32;;;;;;;20.73;18.67;;;;;;;;;;5074601;28;20069;-67
2022/04/23 00:11:58;;;;;;;22.05;19.85;;;;;;;;;;5078409;28;20257;-68
2022/04/23 00:14:25;;;;;;;20.60;18.63;;;;;;;;;;5084397;28;20032;-67
2022/04/23 00:16:53;;;;;;;21.58;19.50;;;;;;;;;;5082613;28;20531;-68
2022/04/23 00:19:20;;;;;;;21.52;19.33;;;;;;;;;;5083068;28;20032;-67
2022/04/23 00:21:46;;;;;;;20.75;18.92;;;;;;;;;;5072320;28;20055;-68
2022/04/23 00:24:11;;;;;;;21.67;19.38;;;;;;;;;;5084330;28;20063;-68
2022/04/23 00:26:37;;;;;;;20.63;18.63;;;;;;;;;;5075919;28;20033;-68
2022/04/23 00:29:03;;;;;;;21.42;19.45;;;;;;;;;;5076433;28;20501;-68
2022/04/23 00:31:29;;;;;;;20.77;18.75;;;;;;;;;;5080452;28;20446;-68
2022/04/23 00:33:54;;;;;;;20.58;18.77;;;;;;;;;;5071537;28;20040;-68
2022/04/23 00:36:23;;;;;;;20.20;18.30;;;;;;;;;;5068909;28;20117;-68
2022/04/23 00:38:52;;;;;;;21.52;19.52;;;;;;;;;;5083208;28;20522;-68
2022/04/23 00:44:04;;;;;;;20.83;18.98;;;;;;;;;;5075696;28;20119;-68
2022/04/23 00:46:30;;;;;;;21.05;19.00;;;;;;;;;;5079103;28;20024;-68
2022/04/23 00:48:58;;;;;;;21.27;18.98;;;;;;;;;;5081241;28;20300;-67
2022/04/23 00:51:25;;;;;;;20.85;18.73;;;;;;;;;;5075568;28;20159;-67
2022/04/23 00:53:52;;;;;;;21.25;19.23;;;;;;;;;;5079575;28;20457;-68
2022/04/23 00:56:18;;;;;;;19.42;17.73;;;;;;;;;;5083384;28;20499;-68
2022/04/23 00:58:44;;;;;;;21.02;19.08;;;;;;;;;;5074143;28;20228;-67
2022/04/23 01:01:09;;;;;;;20.33;18.45;;;;;;;;;;5077957;28;20032;-67
2022/04/23 01:03:36;;;;;;;21.25;19.17;;;;;;;;;;5059641;28;20070;-69
2022/04/23 01:06:02;;;;;;;22.40;19.52;;;;;;;;;;5072735;28;20032;-67
2022/04/23 01:08:28;;;;;;;21.25;19.25;;;;;;;;;;5081480;28;20071;-67
2022/04/23 01:10:53;;;;;;;21.35;19.35;;;;;;;;;;5083902;28;20097;-68
2022/04/23 01:13:19;;;;;;;22.42;20.38;;;;;;;;;;5083318;28;20048;-67
2022/04/23 01:16:05;;;;;;;23.88;21.38;;;;;;;;;;5073342;28;20135;-68
2022/04/23 01:18:32;;;;;;;22.42;20.33;;;;;;;;;;5059424;28;20044;-68
2022/04/23 01:21:02;;;;;;;23.92;21.35;;;;;;;;;;5074948;28;20036;-67
2022/04/23 01:23:29;;;;;;;23.15;20.75;;;;;;;;;;5084066;28;20059;-67
2022/04/23 01:25:55;;;;;;;23.77;21.48;;;;;;;;;;5080456;28;20110;-68
2022/04/23 01:28:22;;;;;;;23.13;20.88;;;;;;;;;;5072257;28;20036;-68
2022/04/23 01:30:52;;;;;;;23.50;21.20;;;;;;;;;;5077130;28;20077;-68
2022/04/23 01:33:18;;;;;;;24.25;21.77;;;;;;;;;;5067582;28;20842;-68
2022/04/23 01:35:44;;;;;;;24.80;22.30;;;;;;;;;;5080109;28;20036;-68
2022/04/23 01:38:11;;;;;;;23.63;21.15;;;;;;;;;;5082637;28;20068;-67
2022/04/23 01:40:37;;;;;;;25.45;22.90;;;;;;;;;;5070583;28;20113;-68
2022/04/23 01:43:04;;;;;;;24.35;22.00;;;;;;;;;;5075544;28;20032;-68
2022/04/23 01:45:29;;;;;;;25.50;22.98;;;;;;;;;;5079911;28;20459;-68
2022/04/23 01:47:55;;;;;;;25.20;22.63;;;;;;;;;;5072489;28;20021;-68
2022/04/23 01:50:21;;;;;;;26.20;23.45;;;;;;;;;;5075677;28;20040;-68
2022/04/23 01:52:47;;;;;;;26.08;23.27;;;;;;;;;;5082351;28;20812;-68
2022/04/23 01:55:13;;;;;;;26.33;23.58;;;;;;;;;;5067135;28;20433;-69
2022/04/23 01:57:38;;;;;;;27.45;24.75;;;;;;;;;;5078692;28;20067;-69
2022/04/23 02:00:10;;;;;;;27.08;24.25;;;;;;;;;;5057971;28;20465;-69
2022/04/23 02:02:40;;;;;;;26.95;24.20;;;;;;;;;;5080775;28;20036;-69
2022/04/23 02:05:07;;;;;;;28.15;24.85;;;;;;;;;;5077178;28;20032;-69
2022/04/23 02:07:41;;;;;;;26.80;24.10;;;;;;;;;;5078210;28;20064;-70
2022/04/23 02:10:14;;;;;;;29.13;26.23;;;;;;;;;;5084455;28;20133;-67
2022/04/23 02:12:41;;;;;;;25.67;23.05;;;;;;;;;;5071891;28;20039;-67
2022/04/23 02:15:11;;;;;;;26.55;24.00;;;;;;;;;;5080564;28;20115;-67
2022/04/23 02:17:42;;;;;;;27.90;25.08;;;;;;;;;;5083619;28;20115;-67
2022/04/23 02:20:13;;;;;;;27.02;24.38;;;;;;;;;;5056151;28;20037;-67
2022/04/23 02:22:39;;;;;;;26.85;24.25;;;;;;;;;;5083080;28;20028;-67
2022/04/23 02:25:06;;;;;;;27.13;24.35;;;;;;;;;;5085978;28;20040;-67
2022/04/23 02:27:41;;;;;;;30.20;26.45;;;;;;;;;;5081586;28;20064;-68
2022/04/23 02:30:08;;;;;;;27.00;24.20;;;;;;;;;;5079915;28;20360;-68
2022/04/23 02:32:33;;;;;;;28.02;25.13;;;;;;;;;;5075811;28;20115;-68
2022/04/23 02:34:59;;;;;;;26.45;23.75;;;;;;;;;;5075818;28;20131;-68
2022/04/23 02:37:32;;;;;;;29.27;26.30;;;;;;;;;;5080998;28;20040;-68
2022/04/23 02:39:58;;;;;;;27.50;24.65;;;;;;;;;;5084256;28;20127;-67
2022/04/23 02:42:23;;;;;;;26.80;23.90;;;;;;;;;;5081796;28;20111;-68
2022/04/23 02:44:49;;;;;;;29.35;24.95;;;;;;;;;;5088950;28;20067;-68
2022/04/23 02:47:16;;;;;;;27.02;24.15;;;;;;;;;;5083655;28;20028;-67
2022/04/23 02:49:42;;;;;;;25.38;22.80;;;;;;;;;;5089206;28;20040;-68
2022/04/23 02:52:08;;;;;;;27.30;24.48;;;;;;;;;;5085844;28;20402;-68
2022/04/23 02:54:33;;;;;;;28.98;25.65;;;;;;;;;;5085015;28;20055;-67
2022/04/23 02:57:01;;;;;;;29.92;26.83;;;;;;;;;;5080785;28;20047;-68
2022/04/23 02:59:26;;;;;;;28.25;25.23;;;;;;;;;;5081713;28;20518;-68
2022/04/23 03:01:52;;;;;;;26.23;23.55;;;;;;;;;;5076478;28;20036;-68
2022/04/23 03:04:19;;;;;;;28.95;25.88;;;;;;;;;;5085897;28;20036;-68
2022/04/23 03:06:45;;;;;;;28.40;24.30;;;;;;;;;;5085846;28;20039;-67
2022/04/23 03:09:11;;;;;;;28.98;25.92;;;;;;;;;;5076028;28;20039;-68
2022/04/23 03:11:37;;;;;;;29.38;25.83;;;;;;;;;;5082131;28;20402;-67
2022/04/23 03:14:04;;;;;;;26.75;23.98;;;;;;;;;;5074980;28;20043;-67
2022/04/23 03:16:29;;;;;;;29.63;25.95;;;;;;;;;;5075546;28;20044;-67
2022/04/23 03:18:58;;;;;;;27.58;24.58;;;;;;;;;;5081723;28;20024;-68
2022/04/23 03:21:24;;;;;;;29.25;25.92;;;;;;;;;;5064851;28;20073;-68
2022/04/23 03:23:50;;;;;;;29.30;25.10;;;;;;;;;;5068883;28;20702;-67
2022/04/23 03:26:16;;;;;;;28.88;25.83;;;;;;;;;;5077593;28;20032;-67
2022/04/23 03:28:41;;;;;;;28.65;25.25;;;;;;;;;;5079915;28;20040;-70
2022/04/23 03:31:11;;;;;;;30.73;25.77;;;;;;;;;;5080129;28;20043;-67
2022/04/23 03:33:36;;;;;;;27.50;24.55;;;;;;;;;;5074988;28;20479;-67
2022/04/23 03:36:03;;;;;;;29.33;26.23;;;;;;;;;;5070850;28;20066;-67
2022/04/23 03:38:29;;;;;;;27.98;24.80;;;;;;;;;;5083014;28;20033;-69
2022/04/23 03:40:55;;;;;;;28.00;24.90;;;;;;;;;;5075590;28;20032;-67
2022/04/23 03:43:21;;;;;;;29.45;24.88;;;;;;;;;;5056622;28;20039;-67
2022/04/23 03:45:47;;;;;;;27.73;24.60;;;;;;;;;;5077952;28;20052;-67
2022/04/23 03:48:14;;;;;;;31.45;25.52;;;;;;;;;;5081922;28;20036;-67
2022/04/23 03:50:42;;;;;;;32.75;26.33;;;;;;;;;;5071893;28;20277;-67
2022/04/23 03:53:08;;;;;;;32.42;27.55;;;;;;;;;;5077692;28;20108;-67
2022/04/23 03:55:35;;;;;;;30.30;25.80;;;;;;;;;;5086295;28;20132;-67
2022/04/23 03:58:01;;;;;;;31.77;26.77;;;;;;;;;;5074872;28;20072;-67
2022/04/23 04:00:28;;;;;;;32.88;26.27;;;;;;;;;;5061320;28;20440;-68
2022/04/23 04:02:55;;;;;;;34.97;28.67;;;;;;;;;;5053668;28;20087;-67
2022/04/23 04:05:22;;;;;;;36.53;28.88;;;;;;;;;;5065486;28;20156;-66
2022/04/23 04:07:48;;;;;;;39.00;28.98;;;;;;;;;;5079875;28;20115;-67
2022/04/23 04:10:17;;;;;;;34.25;27.98;;;;;;;;;;5084838;28;20043;-67
2022/04/23 04:12:43;;;;;;;38.63;28.48;;;;;;;;;;5078872;28;20035;-66
2022/04/23 04:15:11;;;;;;;43.50;29.50;;;;;;;;;;5077611;28;20036;-66
2022/04/23 04:17:38;;;;;;;42.95;33.17;;;;;;;;;;5082526;28;20536;-67
2022/04/23 04:20:08;;;;;;;37.75;30.17;;;;;;;;;;5075697;28;20028;-67
2022/04/23 04:22:34;;;;;;;37.45;28.55;;;;;;;;;;5086465;28;20020;-67
2022/04/23 04:25:01;;;;;;;38.72;29.85;;;;;;;;;;5083711;28;20395;-67
2022/04/23 04:27:27;;;;;;;31.45;26.98;;;;;;;;;;5047694;28;20097;-67
2022/04/23 04:29:53;;;;;;;32.45;25.90;;;;;;;;;;5076766;28;20039;-67
2022/04/23 04:32:20;;;;;;;31.00;26.20;;;;;;;;;;5077870;28;20427;-67
2022/04/23 04:34:46;;;;;;;31.30;26.60;;;;;;;;;;5071319;28;20555;-67
2022/04/23 04:37:13;;;;;;;29.80;25.73;;;;;;;;;;5075438;28;20044;-67
2022/04/23 04:39:40;;;;;;;31.67;26.35;;;;;;;;;;5081759;28;20055;-69
2022/04/23 04:42:06;;;;;;;31.00;25.90;;;;;;;;;;5074073;28;20111;-67
2022/04/23 04:44:32;;;;;;;30.08;24.27;;;;;;;;;;5068929;28;20032;-69
2022/04/23 04:47:08;;;;;;;26.33;23.52;;;;;;;;;;5073344;28;20395;-69
2022/04/23 04:49:34;;;;;;;26.88;23.70;;;;;;;;;;5082014;28;20028;-67
2022/04/23 04:52:00;;;;;;;26.58;23.98;;;;;;;;;;5071822;28;20028;-69
2022/04/23 04:54:25;;;;;;;25.65;23.02;;;;;;;;;;5078880;28;20459;-66
2022/04/23 04:56:52;;;;;;;25.35;22.65;;;;;;;;;;5084856;28;20028;-67
2022/04/23 04:59:20;;;;;;;24.75;22.15;;;;;;;;;;5068512;28;20041;-67
2022/04/23 05:01:47;;;;;;;24.33;21.83;;;;;;;;;;5068611;28;20112;-69
2022/04/23 05:04:13;;;;;;;23.77;21.38;;;;;;;;;;5057520;28;20032;-67
2022/04/23 05:06:38;;;;;;;22.83;20.60;;;;;;;;;;5083750;28;20066;-69
2022/04/23 05:09:04;;;;;;;22.10;19.95;;;;;;;;;;5068771;28;20047;-67
2022/04/23 05:11:31;;;;;;;22.58;20.42;;;;;;;;;;5069739;28;20047;-66
2022/04/23 05:13:56;;;;;;;21.67;19.67;;;;;;;;;;5085843;28;20039;-66
2022/04/23 05:16:22;;;;;;;21.77;19.67;;;;;;;;;;5073967;28;20033;-69
2022/04/23 05:18:48;;;;;;;21.90;19.67;;;;;;;;;;5070511;28;20047;-66
2022/04/23 05:21:13;;;;;;;22.15;20.15;;;;;;;;;;5082121;28;20405;-67
2022/04/23 05:23:39;;;;;;;21.77;19.70;;;;;;;;;;5084239;28;20031;-67
2022/04/23 05:26:05;;;;;;;20.95;19.05;;;;;;;;;;5076049;28;20081;-69
2022/04/23 05:28:32;;;;;;;20.98;19.10;;;;;;;;;;5084801;28;20040;-66
2022/04/23 05:30:57;;;;;;;21.55;19.42;;;;;;;;;;5070462;28;20487;-67
2022/04/23 05:33:23;;;;;;;20.60;18.70;;;;;;;;;;5067987;28;20086;-67
2022/04/23 05:35:49;;;;;;;20.25;18.42;;;;;;;;;;5049844;28;20059;-67
2022/04/23 05:38:14;;;;;;;21.15;19.15;;;;;;;;;;5078659;28;20419;-67
2022/04/23 05:40:40;;;;;;;20.42;18.63;;;;;;;;;;5071808;28;20045;-66
2022/04/23 05:43:05;;;;;;;21.13;19.08;;;;;;;;;;5067910;28;20029;-67
2022/04/23 05:45:31;;;;;;;22.42;20.10;;;;;;;;;;5069618;28;20060;-67
2022/04/23 05:47:58;;;;;;;20.80;18.90;;;;;;;;;;5082163;28;20538;-67
2022/04/23 05:50:24;;;;;;;20.92;18.98;;;;;;;;;;5068128;28;20042;-67
2022/04/23 05:52:49;;;;;;;21.25;19.35;;;;;;;;;;5054533;28;20035;-67
2022/04/23 05:55:15;;;;;;;20.73;18.73;;;;;;;;;;5064738;28;20063;-67
2022/04/23 05:57:41;;;;;;;20.85;18.95;;;;;;;;;;5055112;28;20037;-67
2022/04/23 06:00:09;;;;;;;21.65;19.75;;;;;;;;;;5068233;28;20084;-67
2022/04/23 06:02:38;;;;;;;20.67;18.88;;;;;;;;;;5052731;28;20036;-67
2022/04/23 06:05:04;;;;;;;20.52;18.73;;;;;;;;;;5086163;28;20124;-67
2022/04/23 06:07:30;;;;;;;20.52;18.73;;;;;;;;;;5068390;28;20463;-67
2022/04/23 06:09:56;;;;;;;19.77;18.08;;;;;;;;;;5067967;28;20820;-67
2022/04/23 06:12:22;;;;;;;20.92;19.00;;;;;;;;;;5074893;28;20051;-67
2022/04/23 06:14:49;;;;;;;20.40;18.27;;;;;;;;;;5085140;28;20035;-67
2022/04/23 06:17:15;;;;;;;20.05;18.30;;;;;;;;;;5087594;28;20137;-67
2022/04/23 06:19:42;;;;;;;21.35;18.80;;;;;;;;;;5085761;28;20042;-67
2022/04/23 06:22:08;;;;;;;19.35;17.55;;;;;;;;;;5082287;28;20408;-67
2022/04/23 06:24:34;;;;;;;18.23;16.73;;;;;;;;;;5081684;28;20451;-67
2022/04/23 06:27:00;;;;;;;19.10;16.95;;;;;;;;;;5070822;28;20024;-67
2022/04/23 06:29:26;;;;;;;18.88;17.15;;;;;;;;;;5069246;28;20047;-67
2022/04/23 06:31:51;;;;;;;18.25;16.58;;;;;;;;;;5083688;28;20032;-67
2022/04/23 06:34:19;;;;;;;18.58;16.95;;;;;;;;;;5079091;28;20025;-67
2022/04/23 06:36:44;;;;;;;18.25;16.80;;;;;;;;;;5053101;28;20041;-67
2022/04/23 06:39:10;;;;;;;18.40;16.90;;;;;;;;;;5068223;28;20037;-67
2022/04/23 06:41:36;;;;;;;18.92;17.10;;;;;;;;;;5085172;28;20056;-68
2022/04/23 06:44:05;;;;;;;;;;;;;;;;;;5064929;28;20080;-68
2022/04/23 06:46:31;;;;;;;18.38;16.90;;;;;;;;;;5084623;28;19912;-68
2022/04/23 06:49:00;;;;;;;19.10;17.40;;;;;;;;;;5080058;28;20089;-68
2022/04/23 06:51:25;;;;;;;18.92;17.17;;;;;;;;;;5068529;28;20028;-67
2022/04/23 06:53:51;;;;;;;18.65;17.00;;;;;;;;;;5063401;28;20518;-67
2022/04/23 06:56:16;;;;;;;18.45;16.90;;;;;;;;;;5080205;28;20063;-67
2022/04/23 06:58:46;;;;;;;18.58;16.98;;;;;;;;;;5079890;28;20042;-67
2022/04/23 07:01:11;;;;;;;18.67;17.08;;;;;;;;;;5086420;28;20653;-67
2022/04/23 07:03:37;;;;;;;19.27;17.58;;;;;;;;;;5071042;28;20041;-67
2022/04/23 07:06:03;;;;;;;18.48;16.77;;;;;;;;;;5071266;28;20036;-67
2022/04/23 07:08:29;;;;;;;18.67;17.08;;;;;;;;;;5078572;28;20483;-67
2022/04/23 07:10:54;;;;;;;17.77;16.38;;;;;;;;;;5082760;28;20031;-67
2022/04/23 07:13:21;;;;;;;18.50;17.00;;;;;;;;;;5085922;28;20463;-69
2022/04/23 07:15:46;;;;;;;18.48;16.88;;;;;;;;;;5083008;28;20060;-70
2022/04/23 07:18:12;;;;;;;19.13;17.52;;;;;;;;;;5080341;28;20467;-68
2022/04/23 07:20:39;;;;;;;19.20;17.55;;;;;;;;;;5086977;28;20421;-68
2022/04/23 07:25:54;;;;;;;;;;;;;;;;;;5059996;28;20079;-69
2022/04/23 07:28:23;;;;;;;18.88;17.17;;;;;;;;;;5087127;28;19943;-69
2022/04/23 07:30:48;;;;;;;19.15;17.33;;;;;;;;;;5083184;28;20395;-69
2022/04/23 07:37:28;;;;;;;19.33;17.58;;;;;;;;;;5069698;28;20032;-69
2022/04/23 07:38:44;;;;;;;18.35;16.75;;;;;;;;;;5075322;28;20113;-69
2022/04/23 07:41:10;;;;;;;17.85;16.17;;;;;;;;;;5069671;28;20519;-68
2022/04/23 07:43:36;;;;;;;17.02;15.52;;;;;;;;;;5082671;28;20122;-68
2022/04/23 07:46:01;;;;;;;18.58;16.98;;;;;;;;;;5086940;28;20460;-67
2022/04/23 07:48:27;;;;;;;18.13;16.55;;;;;;;;;;5081037;28;20039;-68
2022/04/23 07:50:53;;;;;;;18.52;16.92;;;;;;;;;;5076063;28;20035;-69
2022/04/23 07:53:18;;;;;;;17.83;16.33;;;;;;;;;;5085299;28;20030;-69
2022/04/23 07:55:44;;;;;;;17.73;16.13;;;;;;;;;;5085842;28;20032;-69
2022/04/23 07:58:10;;;;;;;17.67;16.23;;;;;;;;;;5083896;28;20031;-69
2022/04/23 08:00:35;;;;;;;20.92;18.75;;;;;;;;;;5086398;28;20540;-69
2022/04/23 08:03:03;;;;;;;18.83;17.10;;;;;;;;;;5070892;28;20469;-70
2022/04/23 08:05:34;;;;;;;17.90;16.38;;;;;;;;;;5080336;28;20064;-69
2022/04/23 08:08:00;;;;;;;17.40;15.90;;;;;;;;;;5081542;28;20036;-69
2022/04/23 08:10:26;;;;;;;17.52;16.02;;;;;;;;;;5075002;28;20041;-68
2022/04/23 08:12:54;;;;;;;17.80;16.30;;;;;;;;;;5069298;28;20510;-69
2022/04/23 08:15:20;;;;;;;17.85;16.33;;;;;;;;;;5068936;28;20037;-70
2022/04/23 08:17:47;;;;;;;17.98;16.38;;;;;;;;;;5084216;28;20161;-70
2022/04/23 08:20:13;;;;;;;18.30;16.60;;;;;;;;;;5081450;28;20387;-69
2022/04/23 08:22:39;;;;;;;20.25;18.25;;;;;;;;;;5080540;28;20105;-69
2022/04/23 08:25:05;;;;;;;19.67;17.70;;;;;;;;;;5080105;28;20471;-68
2022/04/23 08:27:30;;;;;;;19.50;17.52;;;;;;;;;;5085678;28;20033;-69
2022/04/23 08:32:40;;;;;;;18.17;16.58;;;;;;;;;;5068687;28;20491;-69
2022/04/23 08:35:06;;;;;;;19.30;17.27;;;;;;;;;;5060881;28;20035;-69
2022/04/23 08:37:34;;;;;;;19.35;17.58;;;;;;;;;;5077081;28;20041;-67
2022/04/23 08:40:00;;;;;;;17.38;15.77;;;;;;;;;;5079508;28;20146;-67
2022/04/23 08:42:26;;;;;;;18.17;16.48;;;;;;;;;;5086771;28;20089;-67
2022/04/23 08:44:53;;;;;;;19.00;17.08;;;;;;;;;;5081511;28;20040;-68
2022/04/23 08:47:22;;;;;;;18.15;16.45;;;;;;;;;;5082661;28;20099;-69
2022/04/23 08:49:54;;;;;;;19.50;17.70;;;;;;;;;;5072665;28;20046;-68
2022/04/23 08:52:34;;;;;;;18.20;16.63;;;;;;;;;;5082293;28;20070;-69
2022/04/23 08:55:01;;;;;;;19.38;17.67;;;;;;;;;;5085740;28;20483;-68
2022/04/23 08:57:28;;;;;;;20.70;18.45;;;;;;;;;;5074293;28;20036;-69
2022/04/23 08:59:56;;;;;;;19.08;17.38;;;;;;;;;;5050461;28;20029;-68
2022/04/23 09:02:24;;;;;;;19.10;17.50;;;;;;;;;;5071675;28;20052;-70
2022/04/23 09:04:50;;;;;;;19.52;17.77;;;;;;;;;;5086352;28;20032;-69
2022/04/23 09:07:20;;;;;;;19.80;18.00;;;;;;;;;;5069031;28;20395;-71
2022/04/23 09:09:56;;;;;;;18.42;16.85;;;;;;;;;;5067833;28;20044;-69
2022/04/23 09:12:26;;;;;;;18.40;16.65;;;;;;;;;;5079398;28;20579;-69
2022/04/23 09:15:03;;;;;;;18.42;16.52;;;;;;;;;;5073602;28;20617;-71
2022/04/23 09:25:48;;;;;;;24.23;20.38;;;;;;;;;;5074737;28;20036;-69
2022/04/23 09:28:17;;;;;;;19.83;17.73;;;;;;;;;;5068184;28;20029;-68
2022/04/23 09:30:44;;;;;;;21.52;19.23;;;;;;;;;;5057241;28;20032;-69
2022/04/23 09:33:10;;;;;;;17.13;15.43;;;;;;;;;;5084233;28;20032;-69
2022/04/23 09:35:51;;;;;;;28.40;23.30;;;;;;;;;;5082224;28;20034;-69
2022/04/23 09:38:20;;;;;;;18.85;17.13;;;;;;;;;;5074209;28;20040;-69
2022/04/23 09:40:57;;;;;;;16.95;15.30;;;;;;;;;;5078751;28;20054;-70
2022/04/23 09:43:32;;;;;;;16.25;14.75;;;;;;;;;;5079169;28;20032;-70
2022/04/23 09:46:09;;;;;;;16.70;15.30;;;;;;;;;;5086314;28;20037;-69
2022/04/23 09:48:38;;;;;;;15.80;14.48;;;;;;;;;;5070042;28;20077;-70
2022/04/23 09:51:04;;;;;;;14.93;13.63;;;;;;;;;;5085102;28;20078;-70
2022/04/23 09:53:30;;;;;;;15.15;13.95;;;;;;;;;;5078710;28;20032;-70
2022/04/23 09:55:59;;;;;;;16.75;15.35;;;;;;;;;;5084879;28;20028;-69
2022/04/23 09:58:29;;;;;;;16.35;14.95;;;;;;;;;;5080150;28;20481;-69
2022/04/23 10:00:56;;;;;;;14.90;13.70;;;;;;;;;;5083431;28;20036;-69
2022/04/23 10:03:33;;;;;;;16.90;15.27;;;;;;;;;;5081065;28;20035;-70
2022/04/23 10:06:02;;;;;;;16.02;14.73;;;;;;;;;;5082424;28;20036;-68
2022/04/23 10:08:34;;;;;;;17.13;15.63;;;;;;;;;;5084476;28;20036;-70
2022/04/23 10:11:11;;;;;;;17.23;15.63;;;;;;;;;;5071301;28;20658;-69
2022/04/23 10:13:43;;;;;;;17.60;16.10;;;;;;;;;;5067141;28;20414;-69
2022/04/23 10:16:10;;;;;;;18.02;16.30;;;;;;;;;;5056349;28;20024;-68
2022/04/23 10:18:39;;;;;;;17.73;16.20;;;;;;;;;;5084281;28;20039;-69
2022/04/23 10:21:18;;;;;;;17.25;15.70;;;;;;;;;;5068786;28;20060;-68
2022/04/23 10:24:22;;;;;;;17.13;15.70;;;;;;;;;;5082431;28;20115;-68
2022/04/23 10:27:07;;;;;;;17.58;15.98;;;;;;;;;;5085031;28;20172;-68
2022/04/23 10:29:33;;;;;;;17.45;15.95;;;;;;;;;;5071691;28;20321;-68
2022/04/23 10:32:11;;;;;;;16.98;15.55;;;;;;;;;;5089243;28;20051;-69
2022/04/23 10:34:38;;;;;;;17.05;15.55;;;;;;;;;;5084686;28;20058;-69
2022/04/23 10:37:29;;;;;;;17.17;15.45;;;;;;;;;;5084228;28;20043;-68
2022/04/23 10:39:55;;;;;;;17.35;15.82;;;;;;;;;;5072883;28;20610;-69
2022/04/23 10:42:23;;;;;;;18.00;16.42;;;;;;;;;;5078662;28;20118;-69
2022/04/23 10:44:50;;;;;;;16.50;15.13;;;;;;;;;;5084643;28;20032;-69
2022/04/23 10:47:30;;;;;;;17.77;16.00;;;;;;;;;;5085198;28;20025;-70
2022/04/23 10:50:25;;;;;;;17.50;16.00;;;;;;;;;;5070517;28;20506;-70
2022/04/23 10:52:54;;;;;;;20.58;18.52;;;;;;;;;;5083414;28;20032;-68
2022/04/23 10:55:21;;;;;;;17.02;15.52;;;;;;;;;;5085907;28;20418;-69
2022/04/23 10:57:49;;;;;;;16.83;15.43;;;;;;;;;;5070448;28;20055;-69
2022/04/23 11:00:23;;;;;;;17.98;16.48;;;;;;;;;;5076711;28;20047;-69
2022/04/23 11:03:07;;;;;;;17.20;15.70;;;;;;;;;;5085264;28;20036;-70
2022/04/23 11:14:26;;;;;;;16.05;14.70;;;;;;;;;;5084218;28;20040;-69
2022/04/23 11:16:53;;;;;;;;;;;;;;;;;;5086657;28;20481;-69
2022/04/23 11:19:19;;;;;;;16.92;15.57;;;;;;;;;;5076543;28;20438;-69
2022/04/23 11:21:45;;;;;;;16.35;14.93;;;;;;;;;;5082355;28;20046;-69
2022/04/23 11:24:11;;;;;;;15.63;14.43;;;;;;;;;;5082210;28;20044;-70
2022/04/23 11:26:48;;;;;;;16.95;15.55;;;;;;;;;;5070063;28;20491;-69
2022/04/23 11:29:15;;;;;;;17.23;15.88;;;;;;;;;;5072172;28;20040;-70
2022/04/23 11:31:49;;;;;;;16.85;15.35;;;;;;;;;;5082200;28;20040;-69
2022/04/23 11:34:14;;;;;;;16.42;15.13;;;;;;;;;;5071382;28;20040;-69
2022/04/23 11:36:40;;;;;;;16.23;14.85;;;;;;;;;;5084325;28;20047;-69
2022/04/23 11:39:10;;;;;;;15.80;14.60;;;;;;;;;;5082087;28;20039;-69
2022/04/23 11:41:38;;;;;;;15.98;14.57;;;;;;;;;;5075802;28;20589;-69
2022/04/23 11:44:17;;;;;;;15.82;14.52;;;;;;;;;;5076280;28;20065;-69
2022/04/23 11:46:44;;;;;;;16.70;15.25;;;;;;;;;;5085139;28;20505;-69
2022/04/23 11:49:10;;;;;;;16.08;14.77;;;;;;;;;;5082531;28;20043;-68
2022/04/23 11:51:40;;;;;;;15.95;14.50;;;;;;;;;;5075257;28;20036;-69
2022/04/23 11:54:06;;;;;;;15.95;14.65;;;;;;;;;;5081659;28;20055;-70
2022/04/23 11:56:33;;;;;;;16.52;15.13;;;;;;;;;;5060865;28;20534;-69
2022/04/23 11:59:03;;;;;;;15.38;14.18;;;;;;;;;;5067443;28;20048;-69
2022/04/23 12:01:29;;;;;;;15.57;14.27;;;;;;;;;;5074440;28;20045;-68
2022/04/23 12:03:56;;;;;;;15.65;14.35;;;;;;;;;;5065392;28;20403;-69
2022/04/23 12:06:23;;;;;;;16.75;15.25;;;;;;;;;;5080309;28;20028;-69
2022/04/23 12:08:49;;;;;;;16.60;15.18;;;;;;;;;;5082067;28;20530;-68
2022/04/23 12:11:22;;;;;;;16.05;14.82;;;;;;;;;;5076356;28;20028;-68
2022/04/23 12:13:48;;;;;;;15.20;14.00;;;;;;;;;;5074270;28;20052;-69
2022/04/23 12:16:33;;;;;;;15.68;14.27;;;;;;;;;;5082631;28;20261;-69
2022/04/23 12:19:04;;;;;;;15.52;14.35;;;;;;;;;;5081345;28;20532;-68
2022/04/23 12:21:30;;;;;;;16.13;14.82;;;;;;;;;;5080238;28;20036;-70
2022/04/23 12:23:56;;;;;;;15.90;14.63;;;;;;;;;;5082707;28;20062;-69
2022/04/23 12:26:24;;;;;;;16.42;15.13;;;;;;;;;;5081624;28;20172;-69
2022/04/23 12:42:30;;;;;;;14.80;13.60;;;;;;;;;;5073312;28;20036;-70
2022/04/23 12:44:56;;;;;;;15.73;14.30;;;;;;;;;;5080797;28;20036;-70
2022/04/23 12:47:35;;;;;;;15.20;14.00;;;;;;;;;;5068188;28;20116;-69
2022/04/23 12:50:02;;;;;;;16.17;14.98;;;;;;;;;;5066262;28;20036;-70
2022/04/23 12:52:37;;;;;;;15.80;14.52;;;;;;;;;;5076267;28;20037;-70
2022/04/23 12:55:14;;;;;;;15.27;13.98;;;;;;;;;;5080451;28;20700;-70
2022/04/23 12:57:51;;;;;;;17.92;16.42;;;;;;;;;;5066448;28;20048;-70
2022/04/23 13:00:22;;;;;;;26.33;22.23;;;;;;;;;;5071610;28;20140;-68
2022/04/23 13:02:54;;;;;;;18.52;16.73;;;;;;;;;;5083278;28;20111;-70
2022/04/23 13:05:20;;;;;;;16.88;15.55;;;;;;;;;;5080731;28;20039;-70
2022/04/23 13:10:30;;;;;;;14.68;13.57;;;;;;;;;;5077082;28;20036;-70
2022/04/23 13:12:56;;;;;;;15.05;13.85;;;;;;;;;;5102537;22;20036;-67
2022/04/23 13:15:23;;;;;;;15.45;14.05;;;;;;;;;;5099799;28;20681;-66
2022/04/23 13:17:49;;;;;;;15.07;13.77;;;;;;;;;;5106901;28;20569;-67
2022/04/23 13:20:15;;;;;;;15.00;13.80;;;;;;;;;;5107699;28;20146;-66
2022/04/23 13:22:43;;;;;;;16.25;15.05;;;;;;;;;;5096193;28;20043;-66
2022/04/23 13:25:11;;;;;;;15.57;14.23;;;;;;;;;;5076198;28;20044;-66
2022/04/23 13:27:37;;;;;;;15.37;14.23;;;;;;;;;;5067411;28;20051;-66
2022/04/23 13:30:04;;;;;;;15.30;14.20;;;;;;;;;;5068775;28;20063;-66
2022/04/23 13:32:35;;;;;;;15.98;14.77;;;;;;;;;;5084174;28;20039;-66
2022/04/23 13:35:08;;;;;;;15.73;14.43;;;;;;;;;;5080602;28;20042;-67
2022/04/23 13:37:34;;;;;;;14.63;13.52;;;;;;;;;;5081865;28;20032;-66
2022/04/23 13:39:59;;;;;;;14.90;13.70;;;;;;;;;;5078266;28;20437;-66
2022/04/23 13:42:26;;;;;;;16.48;15.18;;;;;;;;;;5076509;28;20452;-66
2022/04/23 13:44:54;;;;;;;15.75;14.18;;;;;;;;;;5081752;28;20040;-66
2022/04/23 13:47:20;;;;;;;17.90;16.13;;;;;;;;;;5080198;28;20030;-66
2022/04/23 13:49:47;;;;;;;19.60;16.75;;;;;;;;;;5075184;28;20037;-66
2022/04/23 13:52:13;;;;;;;16.85;15.38;;;;;;;;;;5069458;28;20064;-66
2022/04/23 13:54:38;;;;;;;16.48;15.07;;;;;;;;;;5078835;28;20079;-67
2022/04/23 13:57:06;;;;;;;16.63;15.13;;;;;;;;;;5075948;28;20408;-66
2022/04/23 13:59:35;;;;;;;15.70;14.30;;;;;;;;;;5070459;28;20058;-67
2022/04/23 14:10:15;;;;;;;15.77;14.48;;;;;;;;;;5079250;28;20067;-66
2022/04/23 14:12:43;;;;;;;16.33;15.02;;;;;;;;;;5083539;28;20063;-67
2022/04/23 14:15:10;;;;;;;16.15;14.50;;;;;;;;;;5087559;28;20033;-66
2022/04/23 14:17:36;;;;;;;15.65;14.35;;;;;;;;;;5086315;28;20037;-66
2022/04/23 14:20:02;;;;;;;16.63;15.25;;;;;;;;;;5081745;28;20036;-66
2022/04/23 14:22:28;;;;;;;18.63;16.98;;;;;;;;;;5081845;28;20051;-66
2022/04/23 14:24:54;;;;;;;15.15;13.85;;;;;;;;;;5085000;28;20032;-66
2022/04/23 14:27:20;;;;;;;17.05;15.50;;;;;;;;;;5084809;28;20020;-65
2022/04/23 14:29:48;;;;;;;15.77;14.43;;;;;;;;;;5079807;28;20035;-65
2022/04/23 14:32:14;;;;;;;16.88;15.35;;;;;;;;;;5079159;28;20651;-65
2022/04/23 14:34:40;;;;;;;17.63;15.82;;;;;;;;;;5079951;28;20028;-66
2022/04/23 14:37:06;;;;;;;21.27;18.48;;;;;;;;;;5087649;28;20036;-66
2022/04/23 14:39:31;;;;;;;16.27;14.57;;;;;;;;;;5075991;28;20109;-66
2022/04/23 14:41:57;;;;;;;16.50;15.10;;;;;;;;;;5078472;28;20039;-65
2022/04/23 14:44:22;;;;;;;21.95;19.95;;;;;;;;;;5081512;28;20032;-65
2022/04/23 14:46:53;;;;;;;18.10;16.52;;;;;;;;;;5087509;28;20036;-65
2022/04/23 14:49:19;;;;;;;19.40;17.73;;;;;;;;;;5071341;28;20067;-65
2022/04/23 14:54:29;;;;;;;17.52;16.02;;;;;;;;;;5088010;28;20547;-65
2022/04/23 14:56:55;;;;;;;18.80;17.20;;;;;;;;;;5077406;28;20039;-65
2022/04/23 14:59:21;;;;;;;17.92;16.33;;;;;;;;;;5088722;28;20038;-65
2022/04/23 15:01:47;;;;;;;18.45;16.65;;;;;;;;;;5078534;28;20443;-65
2022/04/23 15:04:14;;;;;;;18.02;16.55;;;;;;;;;;5071291;28;20119;-64
2022/04/23 15:06:40;;;;;;;18.83;17.13;;;;;;;;;;5075499;28;20040;-65
2022/04/23 15:09:06;;;;;;;19.13;17.45;;;;;;;;;;5084598;28;20036;-66
2022/04/23 15:11:32;;;;;;;18.40;16.70;;;;;;;;;;5071272;28;20043;-65
2022/04/23 15:13:58;;;;;;;18.90;17.20;;;;;;;;;;5086586;28;20243;-66
2022/04/23 15:16:24;;;;;;;19.58;17.58;;;;;;;;;;5082719;28;20035;-65
2022/04/23 15:18:50;;;;;;;18.27;16.58;;;;;;;;;;5083610;28;20063;-66